Norwegian Spirit — C6TQ6 — position and weather

sailwx.info

Track history (hours):
 
Tides and Currents Weather Stations Pressure Air Temp Water Temp Dewpoint Dewpoint Depression Visibility Wind Speed Wind Dir Waves Ship Positions

Norwegian Spirit

Operator: Norwegian Cruise Line

Last reported at 2017-Oct-20 03:29 UTC. Time now 2017-Oct-20 03:37 UTC.
Position N 37°29' E 015°32'.

Type: Passenger vessel. MMSI: 311746000.

Date/timePositionNaut miles runAvg speedWind from/ knotsBaromVisibWave heightAir tempDewpointWater temp
2017-Oct-20 03:29N 37°29' E 015°32'916.9
2017-Oct-20 02:57N 37°20' E 015°32'1217.4
2017-Oct-20 02:17N 37°08' E 015°30'4820.9
2017-Oct-20 00:00N 36°24' E 015°08'1121.0
2017-Oct-19 23:30N 36°16' E 014°59'1121.1
2017-Oct-19 23:00N 36°09' E 014°49'1021.1
2017-Oct-19 22:30N 36°02' E 014°40'918.4
2017-Oct-19 22:00N 35°55' E 014°32'1 0.3
2017-Oct-19 16:39N 35°54' E 014°31'0 2.0
2017-Oct-19 16:30N 35°54' E 014°31'612.4
2017-Oct-19 16:00N 35°57' E 014°38'1122.1
2017-Oct-19 15:30N 36°01' E 014°51'45422.5
2017-Oct-18 19:22N 35°37' E 024°10'716.6
2017-Oct-18 18:57N 35°31' E 024°13'2 0.1
2017-Oct-18 02:27N 35°29' E 024°12'3 7.2
2017-Oct-18 01:59N 35°31' E 024°16'3 7.3
2017-Oct-18 01:30N 35°33' E 024°20'4 7.0
2017-Oct-18 01:00N 35°35' E 024°22'4 7.1
2017-Oct-18 00:30N 35°38' E 024°25'  
2017-Oct-15 15:44N 37°33' E 023°45'521.0
2017-Oct-15 15:30N 37°37' E 023°43'1020.8
2017-Oct-15 15:01N 37°47' E 023°38'9 9.4
2017-Oct-15 14:00N 37°56' E 023°38'0 0.0
2017-Oct-15 13:30N 37°56' E 023°38'0 0.0
2017-Oct-15 13:00N 37°56' E 023°38'0 0.0
2017-Oct-15 12:30N 37°56' E 023°38'0 0.0
2017-Oct-15 12:00N 37°56' E 023°38'0 0.0
2017-Oct-15 11:30N 37°56' E 023°38'0 0.0
2017-Oct-15 11:00N 37°56' E 023°38'0 0.0
2017-Oct-15 10:30N 37°56' E 023°38'0 0.0
2017-Oct-15 10:00N 37°56' E 023°38'0 0.0
2017-Oct-15 09:30N 37°56' E 023°38'0 0.0
2017-Oct-15 09:00N 37°56' E 023°38'0 0.0
2017-Oct-15 08:30N 37°56' E 023°38'0 0.0
2017-Oct-15 08:00N 37°56' E 023°38'0 0.0
2017-Oct-15 07:30N 37°56' E 023°38'0 0.0
2017-Oct-15 07:00N 37°56' E 023°38'0 0.0
2017-Oct-15 06:30N 37°56' E 023°38'0 0.0
2017-Oct-15 06:00N 37°56' E 023°38'0 0.0
2017-Oct-15 05:31N 37°56' E 023°38'0 0.0
2017-Oct-15 05:00N 37°56' E 023°38'0 0.0
2017-Oct-15 04:30N 37°56' E 023°38'0 0.0
2017-Oct-15 04:00N 37°56' E 023°38'1 2.6
2017-Oct-15 03:31N 37°56' E 023°37'3 5.8
2017-Oct-15 03:01N 37°53' E 023°38'713.3
2017-Oct-15 02:30N 37°47' E 023°41'713.7
2017-Oct-15 02:00N 37°41' E 023°45'713.7
2017-Oct-15 01:30N 37°37' E 023°52'1213.4
2017-Oct-15 00:37N 37°36' E 024°07'213.4
2017-Oct-15 00:28N 37°37' E 024°09'813.7
2017-Oct-14 23:53N 37°42' E 024°16'913.8
2017-Oct-14 23:14N 37°49' E 024°24'4113.1
2017-Oct-14 20:08N 37°56' E 025°15'213.7
2017-Oct-14 20:00N 37°56' E 025°17'812.5
2017-Oct-14 19:21N 37°56' E 025°28'513.1
2017-Oct-14 19:01N 37°52' E 025°31'713.7
2017-Oct-14 18:30N 37°46' E 025°36'713.2
2017-Oct-14 18:01N 37°41' E 025°31'815.2
2017-Oct-14 17:30N 37°36' E 025°24'815.2
2017-Oct-14 17:01N 37°30' E 025°17'3 5.5
2017-Oct-14 16:24N 37°27' E 025°19'0 0.1
2017-Oct-14 16:00N 37°27' E 025°19'0 0.0
2017-Oct-14 15:30N 37°27' E 025°19'0 0.0
2017-Oct-14 15:00N 37°27' E 025°19'0 0.0
2017-Oct-14 14:27N 37°27' E 025°19'0 0.0
2017-Oct-14 13:57N 37°27' E 025°19'0 0.0
2017-Oct-14 13:30N 37°27' E 025°19'0 0.0
2017-Oct-14 13:00N 37°27' E 025°19'0 0.1
2017-Oct-14 12:30N 37°27' E 025°19'0 0.1
2017-Oct-14 12:00N 37°27' E 025°19'0 0.0
2017-Oct-14 11:27N 37°27' E 025°19'0 0.0
2017-Oct-14 10:57N 37°27' E 025°19'0 0.0
2017-Oct-14 10:30N 37°27' E 025°19'0 0.0
2017-Oct-14 09:54N 37°27' E 025°19'0 0.0
2017-Oct-14 09:30N 37°27' E 025°19'0 0.0
2017-Oct-14 09:00N 37°27' E 025°19'0 0.1
2017-Oct-14 08:30N 37°27' E 025°19'1 2.2
2017-Oct-14 08:00N 37°27' E 025°18'2114.9
2017-Oct-14 06:35N 37°18' E 024°54'116.2
2017-Oct-14 06:30N 37°17' E 024°53'41718.9
2017-Oct-13 08:28N 37°45' E 016°09'1021.0
2017-Oct-13 08:00N 37°48' E 015°57'1020.8
2017-Oct-13 07:30N 37°52' E 015°45'1020.5
2017-Oct-13 07:00N 37°59' E 015°36'1019.9
2017-Oct-13 06:30N 38°09' E 015°35'917.2
2017-Oct-13 06:00N 38°16' E 015°40'816.3
2017-Oct-13 05:31N 38°24' E 015°37'917.2
2017-Oct-13 05:00N 38°32' E 015°32'917.7
2017-Oct-13 04:30N 38°40' E 015°27'917.9
2017-Oct-13 04:00N 38°48' E 015°22'917.6
2017-Oct-13 03:30N 38°55' E 015°16'1221.2
2017-Oct-13 02:57N 39°04' E 015°06'1521.2
2017-Oct-13 02:13N 39°14' E 014°51'521.4
2017-Oct-13 01:59N 39°18' E 014°47'95 3.1
2017-Oct-11 18:58N 40°41' E 013°45'816.7
2017-Oct-11 18:30N 40°37' E 013°54'816.8
2017-Oct-11 18:00N 40°40' E 014°04'816.9
2017-Oct-11 17:30N 40°45' E 014°13'611.5
2017-Oct-11 17:00N 40°50' E 014°16'59 3.5
2017-Oct-10 23:59N 39°55' E 014°42'914.8
2017-Oct-10 23:23N 39°47' E 014°47'1414.8
2017-Oct-10 22:24N 39°34' E 014°55'615.0
2017-Oct-10 22:00N 39°28' E 014°58'715.1
2017-Oct-10 21:31N 39°21' E 015°02'3014.9
2017-Oct-10 19:28N 38°54' E 015°19'915.1
2017-Oct-10 18:52N 38°46' E 015°24'35 3.2
2017-Oct-10 07:59N 38°12' E 015°33'0 0.0
2017-Oct-10 07:29N 38°12' E 015°33'0 0.0
2017-Oct-10 06:56N 38°12' E 015°33'0 0.0
2017-Oct-10 06:26N 38°12' E 015°33'0 0.0
2017-Oct-10 05:59N 38°12' E 015°33'0 0.0
2017-Oct-10 05:30N 38°12' E 015°33'2 3.6
2017-Oct-10 05:00N 38°13' E 015°35'4 8.7
2017-Oct-10 04:30N 38°09' E 015°37'713.5
2017-Oct-10 04:00N 38°02' E 015°35'714.4
2017-Oct-10 03:30N 37°55' E 015°34'  
Track history (hours):
 
Tides and Currents Weather Stations Pressure Air Temp Water Temp Dewpoint Dewpoint Depression Visibility Wind Speed Wind Dir Waves Ship Positions

Norwegian Spirit

Operator: Norwegian Cruise Line

Last reported at 2017-Oct-20 03:29 UTC. Time now 2017-Oct-20 03:37 UTC.
Position N 37°29' E 015°32'.

Type: Passenger vessel. MMSI: 311746000.

Date/timePositionNaut miles runAvg speedWind from/ knotsBaromVisibWave heightAir tempDewpointWater temp
2017-Oct-20 03:29N 37°29' E 015°32'916.9
2017-Oct-20 02:57N 37°20' E 015°32'1217.4
2017-Oct-20 02:17N 37°08' E 015°30'4820.9
2017-Oct-20 00:00N 36°24' E 015°08'1121.0
2017-Oct-19 23:30N 36°16' E 014°59'1121.1
2017-Oct-19 23:00N 36°09' E 014°49'1021.1
2017-Oct-19 22:30N 36°02' E 014°40'918.4
2017-Oct-19 22:00N 35°55' E 014°32'1 0.3
2017-Oct-19 16:39N 35°54' E 014°31'0 2.0
2017-Oct-19 16:30N 35°54' E 014°31'612.4
2017-Oct-19 16:00N 35°57' E 014°38'1122.1
2017-Oct-19 15:30N 36°01' E 014°51'45422.5
2017-Oct-18 19:22N 35°37' E 024°10'716.6
2017-Oct-18 18:57N 35°31' E 024°13'2 0.1
2017-Oct-18 02:27N 35°29' E 024°12'3 7.2
2017-Oct-18 01:59N 35°31' E 024°16'3 7.3
2017-Oct-18 01:30N 35°33' E 024°20'4 7.0
2017-Oct-18 01:00N 35°35' E 024°22'4 7.1
2017-Oct-18 00:30N 35°38' E 024°25'  
2017-Oct-15 15:44N 37°33' E 023°45'521.0
2017-Oct-15 15:30N 37°37' E 023°43'1020.8
2017-Oct-15 15:01N 37°47' E 023°38'9 9.4
2017-Oct-15 14:00N 37°56' E 023°38'0 0.0
2017-Oct-15 13:30N 37°56' E 023°38'0 0.0
2017-Oct-15 13:00N 37°56' E 023°38'0 0.0
2017-Oct-15 12:30N 37°56' E 023°38'0 0.0
2017-Oct-15 12:00N 37°56' E 023°38'0 0.0
2017-Oct-15 11:30N 37°56' E 023°38'0 0.0
2017-Oct-15 11:00N 37°56' E 023°38'0 0.0
2017-Oct-15 10:30N 37°56' E 023°38'0 0.0
2017-Oct-15 10:00N 37°56' E 023°38'0 0.0
2017-Oct-15 09:30N 37°56' E 023°38'0 0.0
2017-Oct-15 09:00N 37°56' E 023°38'0 0.0
2017-Oct-15 08:30N 37°56' E 023°38'0 0.0
2017-Oct-15 08:00N 37°56' E 023°38'0 0.0
2017-Oct-15 07:30N 37°56' E 023°38'0 0.0
2017-Oct-15 07:00N 37°56' E 023°38'0 0.0
2017-Oct-15 06:30N 37°56' E 023°38'0 0.0
2017-Oct-15 06:00N 37°56' E 023°38'0 0.0
2017-Oct-15 05:31N 37°56' E 023°38'0 0.0
2017-Oct-15 05:00N 37°56' E 023°38'0 0.0
2017-Oct-15 04:30N 37°56' E 023°38'0 0.0
2017-Oct-15 04:00N 37°56' E 023°38'1 2.6
2017-Oct-15 03:31N 37°56' E 023°37'3 5.8
2017-Oct-15 03:01N 37°53' E 023°38'713.3
2017-Oct-15 02:30N 37°47' E 023°41'713.7
2017-Oct-15 02:00N 37°41' E 023°45'713.7
2017-Oct-15 01:30N 37°37' E 023°52'1213.4
2017-Oct-15 00:37N 37°36' E 024°07'213.4
2017-Oct-15 00:28N 37°37' E 024°09'813.7
2017-Oct-14 23:53N 37°42' E 024°16'913.8
2017-Oct-14 23:14N 37°49' E 024°24'4113.1
2017-Oct-14 20:08N 37°56' E 025°15'213.7
2017-Oct-14 20:00N 37°56' E 025°17'812.5
2017-Oct-14 19:21N 37°56' E 025°28'513.1
2017-Oct-14 19:01N 37°52' E 025°31'713.7
2017-Oct-14 18:30N 37°46' E 025°36'713.2
2017-Oct-14 18:01N 37°41' E 025°31'815.2
2017-Oct-14 17:30N 37°36' E 025°24'815.2
2017-Oct-14 17:01N 37°30' E 025°17'3 5.5
2017-Oct-14 16:24N 37°27' E 025°19'0 0.1
2017-Oct-14 16:00N 37°27' E 025°19'0 0.0
2017-Oct-14 15:30N 37°27' E 025°19'0 0.0
2017-Oct-14 15:00N 37°27' E 025°19'0 0.0
2017-Oct-14 14:27N 37°27' E 025°19'0 0.0
2017-Oct-14 13:57N 37°27' E 025°19'0 0.0
2017-Oct-14 13:30N 37°27' E 025°19'0 0.0
2017-Oct-14 13:00N 37°27' E 025°19'0 0.1
2017-Oct-14 12:30N 37°27' E 025°19'0 0.1
2017-Oct-14 12:00N 37°27' E 025°19'0 0.0
2017-Oct-14 11:27N 37°27' E 025°19'0 0.0
2017-Oct-14 10:57N 37°27' E 025°19'0 0.0
2017-Oct-14 10:30N 37°27' E 025°19'0 0.0
2017-Oct-14 09:54N 37°27' E 025°19'0 0.0
2017-Oct-14 09:30N 37°27' E 025°19'0 0.0
2017-Oct-14 09:00N 37°27' E 025°19'0 0.1
2017-Oct-14 08:30N 37°27' E 025°19'1 2.2
2017-Oct-14 08:00N 37°27' E 025°18'2114.9
2017-Oct-14 06:35N 37°18' E 024°54'116.2
2017-Oct-14 06:30N 37°17' E 024°53'41718.9
2017-Oct-13 08:28N 37°45' E 016°09'1021.0
2017-Oct-13 08:00N 37°48' E 015°57'1020.8
2017-Oct-13 07:30N 37°52' E 015°45'1020.5
2017-Oct-13 07:00N 37°59' E 015°36'1019.9
2017-Oct-13 06:30N 38°09' E 015°35'917.2
2017-Oct-13 06:00N 38°16' E 015°40'816.3
2017-Oct-13 05:31N 38°24' E 015°37'917.2
2017-Oct-13 05:00N 38°32' E 015°32'917.7
2017-Oct-13 04:30N 38°40' E 015°27'917.9
2017-Oct-13 04:00N 38°48' E 015°22'917.6
2017-Oct-13 03:30N 38°55' E 015°16'1221.2
2017-Oct-13 02:57N 39°04' E 015°06'1521.2
2017-Oct-13 02:13N 39°14' E 014°51'521.4
2017-Oct-13 01:59N 39°18' E 014°47'95 3.1
2017-Oct-11 18:58N 40°41' E 013°45'816.7
2017-Oct-11 18:30N 40°37' E 013°54'816.8
2017-Oct-11 18:00N 40°40' E 014°04'816.9
2017-Oct-11 17:30N 40°45' E 014°13'611.5
2017-Oct-11 17:00N 40°50' E 014°16'59 3.5
2017-Oct-10 23:59N 39°55' E 014°42'914.8
2017-Oct-10 23:23N 39°47' E 014°47'1414.8
2017-Oct-10 22:24N 39°34' E 014°55'615.0
2017-Oct-10 22:00N 39°28' E 014°58'715.1
2017-Oct-10 21:31N 39°21' E 015°02'3014.9
2017-Oct-10 19:28N 38°54' E 015°19'915.1
2017-Oct-10 18:52N 38°46' E 015°24'35 3.2
2017-Oct-10 07:59N 38°12' E 015°33'0 0.0
2017-Oct-10 07:29N 38°12' E 015°33'0 0.0
2017-Oct-10 06:56N 38°12' E 015°33'0 0.0
2017-Oct-10 06:26N 38°12' E 015°33'0 0.0
2017-Oct-10 05:59N 38°12' E 015°33'0 0.0
2017-Oct-10 05:30N 38°12' E 015°33'2 3.6
2017-Oct-10 05:00N 38°13' E 015°35'4 8.7
2017-Oct-10 04:30N 38°09' E 015°37'713.5
2017-Oct-10 04:00N 38°02' E 015°35'714.4
2017-Oct-10 03:30N 37°55' E 015°34'  

Dump ship's entire track history